Time;durP1;ratioP1;P1;durP2;ratioP2;P2;SDS_P1;SDS_P2;PMS_P1;PMS_P2;Temp;Humidity;BMP_temperature;BMP_pressure;BME280_temperature;BME280_humidity;BME280_pressure;Samples;Min_cycle;Max_cycle;Signal;HPM_P1;HPM_P2
2023/07/13 00:02:15;;;;;;;4.35;0.80;;;15.50;99.90;;;;;;5066617;28;20131;-71
2023/07/13 00:04:41;;;;;;;5.82;0.60;;;15.50;99.90;;;;;;5066007;28;20116;-71
2023/07/13 00:07:08;;;;;;;9.18;1.05;;;15.50;99.90;;;;;;5065664;28;20070;-70
2023/07/13 00:09:33;;;;;;;4.82;0.50;;;15.40;99.90;;;;;;5070208;28;20044;-71
2023/07/13 00:11:59;;;;;;;3.92;0.60;;;15.40;99.90;;;;;;5056913;28;20403;-71
2023/07/13 00:14:27;;;;;;;8.38;0.82;;;15.40;99.90;;;;;;5064929;28;20453;-71
2023/07/13 00:16:52;;;;;;;5.05;0.63;;;15.30;99.90;;;;;;5063589;28;20095;-70
2023/07/13 00:19:18;;;;;;;4.60;0.73;;;15.30;99.90;;;;;;5068779;28;20033;-70
2023/07/13 00:21:44;;;;;;;7.07;1.52;;;15.30;99.90;;;;;;5068630;28;20032;-71
2023/07/13 00:24:13;;;;;;;9.35;0.90;;;15.30;99.90;;;;;;5066601;28;20119;-70
2023/07/13 00:26:39;;;;;;;6.45;1.10;;;15.30;99.90;;;;;;5067392;28;20171;-70
2023/07/13 00:29:08;;;;;;;4.05;0.70;;;15.30;99.90;;;;;;5065938;28;20032;-70
2023/07/13 00:31:35;;;;;;;8.45;0.95;;;15.30;99.90;;;;;;5067649;28;20056;-70
2023/07/13 00:34:00;;;;;;;5.10;0.57;;;15.20;99.90;;;;;;5052382;28;20024;-70
2023/07/13 00:36:26;;;;;;;4.80;0.98;;;15.20;99.90;;;;;;5064198;28;20027;-70
2023/07/13 00:38:52;;;;;;;4.13;0.70;;;15.20;99.90;;;;;;5069341;28;20056;-70
2023/07/13 00:41:18;;;;;;;7.20;1.17;;;15.20;99.90;;;;;;5069627;28;20036;-70
2023/07/13 00:43:44;;;;;;;8.77;0.68;;;15.10;99.90;;;;;;5066539;28;20033;-70
2023/07/13 00:46:33;;;;;;;2.83;0.60;;;15.10;99.90;;;;;;5069350;28;20028;-70
2023/07/13 00:49:02;;;;;;;5.80;0.70;;;15.00;99.90;;;;;;5057082;28;20028;-70
2023/07/13 00:51:41;;;;;;;4.85;0.70;;;15.00;99.90;;;;;;5060298;28;20036;-70
2023/07/13 00:54:11;;;;;;;11.15;1.05;;;14.90;99.90;;;;;;5067588;28;20031;-70
2023/07/13 00:56:39;;;;;;;4.65;0.73;;;14.90;99.90;;;;;;5064052;28;20092;-71
2023/07/13 00:59:08;;;;;;;6.07;1.08;;;14.80;99.90;;;;;;5069240;28;20126;-71
2023/07/13 01:01:34;;;;;;;7.35;0.82;;;14.80;99.90;;;;;;5066416;28;20033;-71
2023/07/13 01:03:59;;;;;;;5.50;0.80;;;14.70;99.90;;;;;;5064842;28;20036;-71
2023/07/13 01:06:25;;;;;;;6.95;1.33;;;14.70;99.90;;;;;;5066746;28;20028;-71
2023/07/13 01:08:51;;;;;;;7.13;0.80;;;14.70;99.90;;;;;;5067974;28;20039;-70
2023/07/13 01:11:22;;;;;;;4.43;0.90;;;14.70;99.90;;;;;;5069381;28;20023;-70
2023/07/13 01:13:48;;;;;;;5.45;0.90;;;14.70;99.90;;;;;;5070333;28;21154;-70
2023/07/13 01:16:28;;;;;;;5.70;1.42;;;14.70;99.90;;;;;;5068052;28;20389;-70
2023/07/13 01:18:58;;;;;;;6.93;0.98;;;14.70;99.90;;;;;;5069742;28;20017;-70
2023/07/13 01:21:24;;;;;;;7.40;1.15;;;14.70;99.90;;;;;;5067006;28;20028;-70
2023/07/13 01:23:50;;;;;;;6.28;0.88;;;14.70;99.90;;;;;;5069094;28;20487;-71
2023/07/13 01:26:16;;;;;;;5.40;1.08;;;14.70;99.90;;;;;;5070949;28;20032;-70
2023/07/13 01:28:41;;;;;;;5.13;0.90;;;14.60;99.90;;;;;;5068124;28;20492;-70
2023/07/13 01:31:08;;;;;;;2.60;0.90;;;14.60;99.90;;;;;;5072239;28;20028;-71
2023/07/13 01:33:34;;;;;;;6.43;1.10;;;14.60;99.90;;;;;;5068280;28;20052;-70
2023/07/13 01:36:02;;;;;;;7.68;0.80;;;14.50;99.90;;;;;;5070170;28;20055;-70
2023/07/13 01:38:27;;;;;;;4.85;1.00;;;14.50;99.90;;;;;;5068116;28;20429;-70
2023/07/13 01:40:53;;;;;;;5.93;1.30;;;14.50;99.90;;;;;;5069832;28;20025;-70
2023/07/13 01:43:19;;;;;;;5.35;1.10;;;14.50;99.90;;;;;;5068125;28;20037;-71
2023/07/13 01:45:46;;;;;;;5.75;1.00;;;14.40;99.90;;;;;;5071184;28;20029;-70
2023/07/13 01:48:12;;;;;;;7.38;1.15;;;14.40;99.90;;;;;;5068808;28;20037;-70
2023/07/13 01:50:38;;;;;;;9.13;1.17;;;14.40;99.90;;;;;;5072182;28;20051;-70
2023/07/13 01:53:03;;;;;;;8.82;1.35;;;14.40;99.90;;;;;;5068922;28;20028;-70
2023/07/13 01:55:30;;;;;;;6.18;1.50;;;14.40;99.90;;;;;;5060443;28;20055;-71
2023/07/13 01:57:56;;;;;;;10.02;2.03;;;14.40;99.90;;;;;;5068871;28;20509;-70
2023/07/13 02:00:21;;;;;;;7.65;1.50;;;14.40;99.90;;;;;;5070002;28;20459;-70
2023/07/13 02:02:47;;;;;;;6.78;1.20;;;14.40;99.90;;;;;;5068740;28;20140;-70
2023/07/13 02:05:13;;;;;;;4.43;1.27;;;14.40;99.90;;;;;;5067264;28;20749;-70
2023/07/13 02:07:39;;;;;;;5.30;1.23;;;14.30;99.90;;;;;;5070923;28;20091;-70
2023/07/13 02:10:07;;;;;;;6.25;1.50;;;14.30;99.90;;;;;;5069943;28;20032;-70
2023/07/13 02:12:33;;;;;;;7.55;1.70;;;14.30;99.90;;;;;;5063052;28;20560;-70
2023/07/13 02:14:59;;;;;;;16.30;2.10;;;14.30;99.90;;;;;;5069652;28;20055;-70
2023/07/13 02:17:25;;;;;;;6.60;1.45;;;14.30;99.90;;;;;;5065086;28;20024;-70
2023/07/13 02:19:51;;;;;;;5.55;1.40;;;14.30;99.90;;;;;;5070214;28;20024;-70
2023/07/13 02:22:16;;;;;;;7.60;1.33;;;14.20;99.90;;;;;;5071522;28;20467;-71
2023/07/13 02:24:42;;;;;;;7.00;1.45;;;14.20;99.90;;;;;;5068766;28;20464;-70
2023/07/13 02:27:07;;;;;;;5.72;1.50;;;14.20;99.90;;;;;;5068219;28;20029;-70
2023/07/13 02:29:33;;;;;;;5.20;1.70;;;14.20;99.90;;;;;;5069495;28;20036;-70
2023/07/13 02:31:59;;;;;;;6.85;1.20;;;14.20;99.90;;;;;;5070439;28;20020;-71
2023/07/13 02:34:24;;;;;;;7.15;1.27;;;14.10;99.90;;;;;;5067316;28;20032;-70
2023/07/13 02:36:50;;;;;;;8.55;1.80;;;14.10;99.90;;;;;;5068620;28;20020;-70
2023/07/13 02:39:15;;;;;;;8.07;1.60;;;14.10;99.90;;;;;;5069295;28;20056;-70
2023/07/13 02:41:41;;;;;;;10.55;2.35;;;14.10;99.90;;;;;;5068799;28;20447;-70
2023/07/13 02:44:08;;;;;;;6.43;1.92;;;14.10;99.90;;;;;;5069818;28;20440;-70
2023/07/13 02:46:36;;;;;;;8.43;1.58;;;14.00;99.90;;;;;;5067325;28;20033;-70
2023/07/13 02:49:03;;;;;;;7.75;1.85;;;14.00;99.90;;;;;;5069197;28;20066;-70
2023/07/13 02:51:29;;;;;;;11.05;2.03;;;14.00;99.90;;;;;;5060663;28;20052;-70
2023/07/13 02:53:55;;;;;;;7.10;1.73;;;14.00;99.90;;;;;;5070753;28;20032;-70
2023/07/13 02:56:26;;;;;;;9.80;2.25;;;14.00;99.90;;;;;;5069000;28;20020;-71
2023/07/13 02:58:52;;;;;;;8.77;1.77;;;14.00;99.90;;;;;;5067314;28;20125;-71
2023/07/13 03:01:18;;;;;;;8.00;1.52;;;14.00;99.90;;;;;;5068039;28;20319;-72
2023/07/13 03:03:45;;;;;;;9.32;2.05;;;14.00;99.90;;;;;;5068942;28;20036;-72
2023/07/13 03:06:11;;;;;;;6.70;1.83;;;13.90;99.90;;;;;;5066262;28;20029;-71
2023/07/13 03:08:37;;;;;;;7.80;1.50;;;13.90;99.90;;;;;;5067002;28;20028;-71
2023/07/13 03:11:05;;;;;;;10.18;1.58;;;13.90;99.90;;;;;;5067953;28;20500;-71
2023/07/13 03:13:31;;;;;;;7.13;1.60;;;13.90;99.90;;;;;;5067730;28;20428;-71
2023/07/13 03:15:56;;;;;;;5.95;1.60;;;13.80;99.90;;;;;;5065452;28;20020;-71
2023/07/13 03:18:22;;;;;;;8.73;2.08;;;13.80;99.90;;;;;;5057602;28;20425;-71
2023/07/13 03:20:51;;;;;;;13.27;2.45;;;13.80;99.90;;;;;;5047554;28;20036;-71
2023/07/13 03:23:16;;;;;;;6.05;2.10;;;13.80;99.90;;;;;;5051730;28;20041;-71
2023/07/13 03:25:42;;;;;;;11.95;2.50;;;13.80;99.90;;;;;;5050035;28;20605;-71
2023/07/13 03:28:08;;;;;;;8.35;2.42;;;13.90;99.90;;;;;;5047475;28;20078;-71
2023/07/13 03:30:33;;;;;;;10.20;2.67;;;13.80;99.90;;;;;;5049964;28;20039;-71
2023/07/13 03:32:59;;;;;;;7.80;2.92;;;13.80;99.90;;;;;;5048206;28;20097;-71
2023/07/13 03:35:24;;;;;;;12.18;2.95;;;13.80;99.90;;;;;;5048009;28;20033;-72
2023/07/13 03:37:51;;;;;;;6.88;2.30;;;13.80;99.90;;;;;;5048205;28;20031;-71
2023/07/13 03:40:17;;;;;;;14.48;2.85;;;13.80;99.90;;;;;;5048089;28;20028;-72
2023/07/13 03:42:42;;;;;;;14.73;3.63;;;13.80;99.90;;;;;;5048999;28;20686;-71
2023/07/13 03:45:08;;;;;;;10.18;2.78;;;13.80;99.90;;;;;;5049207;28;20083;-69
2023/07/13 03:47:34;;;;;;;13.45;2.55;;;13.80;99.90;;;;;;5048820;28;20036;-71
2023/07/13 03:49:59;;;;;;;16.45;3.00;;;13.80;99.90;;;;;;5045624;28;20466;-72
2023/07/13 03:52:25;;;;;;;9.00;2.22;;;13.80;99.90;;;;;;5043230;28;20025;-71
2023/07/13 03:54:50;;;;;;;9.15;2.95;;;13.80;99.90;;;;;;5028905;28;20025;-71
2023/07/13 03:57:16;;;;;;;12.25;2.85;;;13.80;99.90;;;;;;5049578;28;20089;-71
2023/07/13 03:59:42;;;;;;;10.88;2.40;;;13.80;99.90;;;;;;5046410;28;20388;-71
2023/07/13 04:02:07;;;;;;;14.25;2.78;;;13.80;99.90;;;;;;5044309;28;20657;-71
2023/07/13 04:04:33;;;;;;;9.32;2.58;;;13.90;99.90;;;;;;5046386;28;20059;-71
2023/07/13 04:06:58;;;;;;;11.13;2.30;;;13.80;99.90;;;;;;5047138;28;20024;-71
2023/07/13 04:09:25;;;;;;;9.60;3.13;;;13.90;99.90;;;;;;5046751;28;21516;-71
2023/07/13 04:11:51;;;;;;;13.23;2.80;;;13.90;99.90;;;;;;5045451;28;20029;-71
2023/07/13 04:14:16;;;;;;;14.30;2.80;;;13.90;99.90;;;;;;5048892;28;20044;-71
2023/07/13 04:16:43;;;;;;;11.73;2.33;;;13.90;99.90;;;;;;5048983;28;20029;-71
2023/07/13 04:19:10;;;;;;;11.27;2.80;;;13.90;99.90;;;;;;5047813;28;20021;-71
2023/07/13 04:21:36;;;;;;;14.48;3.13;;;14.00;99.90;;;;;;5048512;28;20040;-71
2023/07/13 04:24:02;;;;;;;9.98;3.00;;;14.00;99.90;;;;;;5045597;28;20036;-71
2023/07/13 04:26:29;;;;;;;13.32;3.05;;;14.00;99.90;;;;;;5045750;28;20029;-71
2023/07/13 04:28:55;;;;;;;10.23;2.90;;;14.00;99.90;;;;;;5047384;28;20028;-71
2023/07/13 04:31:21;;;;;;;12.75;3.10;;;14.10;99.90;;;;;;5048115;28;20161;-71
2023/07/13 04:33:47;;;;;;;10.43;3.70;;;14.10;99.90;;;;;;5046647;28;20477;-71
2023/07/13 04:36:12;;;;;;;11.05;2.88;;;14.10;99.90;;;;;;5048729;28;20032;-71
2023/07/13 04:38:38;;;;;;;13.38;3.60;;;14.10;99.90;;;;;;5040749;28;20033;-71
2023/07/13 04:41:06;;;;;;;14.18;3.30;;;14.20;99.90;;;;;;5049921;28;20057;-70
2023/07/13 04:43:33;;;;;;;10.48;4.05;;;14.20;99.90;;;;;;5043783;28;20042;-71
2023/07/13 04:46:05;;;;;;;8.60;2.55;;;14.30;99.90;;;;;;5046340;28;20694;-71
2023/07/13 04:48:31;;;;;;;11.80;3.58;;;14.30;99.90;;;;;;5051142;28;20036;-71
2023/07/13 04:50:58;;;;;;;11.27;3.22;;;14.40;99.90;;;;;;5046713;28;20525;-71
2023/07/13 04:53:24;;;;;;;16.38;4.05;;;14.40;99.90;;;;;;5049548;28;20442;-71
2023/07/13 04:55:50;;;;;;;14.80;4.35;;;14.40;99.90;;;;;;5081164;28;20564;-71
2023/07/13 04:58:16;;;;;;;12.85;3.85;;;14.50;99.90;;;;;;5056143;28;20116;-71
2023/07/13 05:00:42;;;;;;;12.18;4.10;;;14.60;99.90;;;;;;5080773;28;20028;-71
2023/07/13 05:03:07;;;;;;;11.77;3.72;;;14.70;99.90;;;;;;5048776;28;20095;-71
2023/07/13 05:05:33;;;;;;;13.40;3.53;;;14.70;99.90;;;;;;5049825;28;20048;-71
2023/07/13 05:07:59;;;;;;;12.13;3.38;;;14.80;99.90;;;;;;5052866;28;20039;-71
2023/07/13 05:10:25;;;;;;;9.98;3.17;;;14.90;99.90;;;;;;5068732;28;20404;-71
2023/07/13 05:12:51;;;;;;;17.20;3.65;;;15.00;99.90;;;;;;5053132;28;20037;-71
2023/07/13 05:15:20;;;;;;;8.75;3.63;;;15.10;99.90;;;;;;5050906;28;20029;-71
2023/07/13 05:17:47;;;;;;;12.43;4.07;;;15.10;99.90;;;;;;5057874;28;20029;-71
2023/07/13 05:20:12;;;;;;;14.10;4.60;;;15.30;99.90;;;;;;5069671;28;20384;-70
2023/07/13 05:22:38;;;;;;;14.20;3.97;;;15.30;99.90;;;;;;5069610;28;20038;-71
2023/07/13 05:25:08;;;;;;;11.05;4.22;;;15.40;99.90;;;;;;5067639;28;20024;-71
2023/07/13 05:27:35;;;;;;;15.02;4.53;;;15.50;99.90;;;;;;5071354;28;20028;-71
2023/07/13 05:30:01;;;;;;;15.65;5.22;;;15.50;99.90;;;;;;5070941;28;20026;-72
2023/07/13 05:32:27;;;;;;;16.00;4.50;;;15.60;99.90;;;;;;5059872;28;20682;-71
2023/07/13 05:34:52;;;;;;;15.90;5.18;;;15.70;99.90;;;;;;5068382;28;20119;-70
2023/07/13 05:37:18;;;;;;;15.88;6.00;;;15.80;99.90;;;;;;5059718;28;20104;-70
2023/07/13 05:39:44;;;;;;;19.88;5.88;;;15.90;99.90;;;;;;5067057;28;20031;-71
2023/07/13 05:42:09;;;;;;;21.90;6.78;;;16.00;99.90;;;;;;5071526;28;20055;-70
2023/07/13 05:44:35;;;;;;;17.50;6.25;;;16.10;99.90;;;;;;5068829;28;20017;-70
2023/07/13 05:47:01;;;;;;;13.07;6.70;;;16.10;99.90;;;;;;5064004;28;20036;-70
2023/07/13 05:49:27;;;;;;;19.60;7.20;;;16.30;99.90;;;;;;5063953;28;20118;-70
2023/07/13 05:51:52;;;;;;;19.27;7.32;;;16.30;99.90;;;;;;5060378;28;20279;-71
2023/07/13 05:54:18;;;;;;;18.50;8.38;;;16.40;99.90;;;;;;5067847;28;20020;-70
2023/07/13 05:56:44;;;;;;;21.58;8.63;;;16.40;99.90;;;;;;5055277;28;20043;-71
2023/07/13 05:59:09;;;;;;;17.95;8.13;;;16.50;99.90;;;;;;5065676;28;20525;-70
2023/07/13 06:01:35;;;;;;;24.20;9.30;;;16.70;99.90;;;;;;5072159;28;20493;-70
2023/07/13 06:04:01;;;;;;;25.52;9.75;;;16.90;99.90;;;;;;5070919;28;20118;-70
2023/07/13 06:06:27;;;;;;;23.40;9.15;;;17.10;99.90;;;;;;5062580;28;20021;-69
2023/07/13 06:08:53;;;;;;;16.63;9.32;;;17.20;99.90;;;;;;5062338;28;20043;-71
2023/07/13 06:11:24;;;;;;;23.92;9.23;;;17.40;99.90;;;;;;5071700;28;20381;-71
2023/07/13 06:13:50;;;;;;;27.58;10.90;;;17.70;99.90;;;;;;5053012;28;20026;-71
2023/07/13 06:16:16;;;;;;;25.73;9.90;;;17.80;99.90;;;;;;5068409;28;20039;-71
2023/07/13 06:18:42;;;;;;;22.13;10.95;;;18.00;99.90;;;;;;5071869;28;20052;-71
2023/07/13 06:21:11;;;;;;;20.50;10.55;;;18.10;99.90;;;;;;5070253;28;20025;-71
2023/07/13 06:23:38;;;;;;;21.73;10.60;;;18.20;99.90;;;;;;5071806;28;20138;-72
2023/07/13 06:26:05;;;;;;;20.80;9.98;;;18.30;99.90;;;;;;5070448;28;20593;-72
2023/07/13 06:28:31;;;;;;;21.30;10.00;;;18.30;99.90;;;;;;5070411;28;20032;-69
2023/07/13 06:30:57;;;;;;;20.63;10.00;;;18.40;99.90;;;;;;5072419;28;20028;-69
2023/07/13 06:33:23;;;;;;;20.98;9.15;;;18.40;99.90;;;;;;5070960;28;20522;-70
2023/07/13 06:35:49;;;;;;;27.85;11.55;;;18.40;99.90;;;;;;5067702;28;20029;-70
2023/07/13 06:38:14;;;;;;;25.27;11.80;;;18.40;99.90;;;;;;5070875;28;20039;-70
2023/07/13 06:40:41;;;;;;;26.92;11.75;;;18.30;99.90;;;;;;5071429;28;20078;-70
2023/07/13 06:43:07;;;;;;;20.67;10.43;;;18.30;99.90;;;;;;5065031;28;20036;-70
2023/07/13 06:45:42;;;;;;;27.83;12.13;;;18.30;99.90;;;;;;5063857;28;20028;-70
2023/07/13 06:48:07;;;;;;;20.52;11.00;;;18.50;99.90;;;;;;5064452;28;20104;-70
2023/07/13 06:50:33;;;;;;;25.05;11.80;;;18.60;99.90;;;;;;5065501;28;20111;-70
2023/07/13 06:52:59;;;;;;;24.17;11.80;;;18.70;99.90;;;;;;5071153;28;20107;-70
2023/07/13 06:55:25;;;;;;;23.45;10.93;;;18.80;99.90;;;;;;5071869;28;20055;-70
2023/07/13 06:57:51;;;;;;;25.00;11.85;;;18.90;99.90;;;;;;5063042;28;20029;-70
2023/07/13 07:00:17;;;;;;;21.65;10.77;;;19.00;99.90;;;;;;5065584;28;20036;-70
2023/07/13 07:02:42;;;;;;;21.27;11.23;;;19.10;99.90;;;;;;5068019;28;20071;-70
2023/07/13 07:05:08;;;;;;;22.95;10.95;;;19.20;99.90;;;;;;5066742;28;20074;-70
2023/07/13 07:07:34;;;;;;;28.73;11.57;;;19.20;99.90;;;;;;5060699;28;20144;-70
2023/07/13 07:09:59;;;;;;;21.58;12.05;;;19.30;99.90;;;;;;5062457;28;20053;-70
2023/07/13 07:12:25;;;;;;;22.02;11.55;;;19.20;99.90;;;;;;5068288;28;20576;-70
2023/07/13 07:14:50;;;;;;;23.98;13.02;;;19.30;99.90;;;;;;5068204;28;20364;-70
2023/07/13 07:17:16;;;;;;;27.33;14.18;;;19.20;99.90;;;;;;5068562;28;20074;-70
2023/07/13 07:19:42;;;;;;;23.13;11.35;;;19.20;99.90;;;;;;5066251;28;20376;-70
2023/07/13 07:22:07;;;;;;;19.88;10.85;;;19.10;99.90;;;;;;5059185;28;20036;-70
2023/07/13 07:24:33;;;;;;;25.77;11.35;;;19.20;99.90;;;;;;5093494;27;20032;-71
2023/07/13 07:26:59;;;;;;;20.60;11.07;;;19.30;99.90;;;;;;5063162;28;20020;-70
2023/07/13 07:29:26;;;;;;;21.10;11.93;;;19.40;99.90;;;;;;5061999;28;20085;-71
2023/07/13 07:31:52;;;;;;;26.02;11.57;;;19.40;99.90;;;;;;5054796;28;20487;-70
2023/07/13 07:34:18;;;;;;;22.02;12.07;;;19.40;99.90;;;;;;5063708;28;20047;-71
2023/07/13 07:36:44;;;;;;;22.67;13.55;;;19.50;99.90;;;;;;5070660;28;20021;-71
2023/07/13 07:39:09;;;;;;;23.88;12.27;;;19.40;99.90;;;;;;5062219;28;20064;-71
2023/07/13 07:41:35;;;;;;;20.73;11.68;;;19.40;99.90;;;;;;5070396;28;20020;-71
2023/07/13 07:44:00;;;;;;;24.70;11.45;;;19.40;99.90;;;;;;5071212;28;20468;-71
2023/07/13 07:46:26;;;;;;;23.17;11.68;;;19.50;99.90;;;;;;5071156;28;20021;-71
2023/07/13 07:48:51;;;;;;;21.13;10.90;;;19.50;99.90;;;;;;5068809;28;20432;-71
2023/07/13 07:51:17;;;;;;;19.20;11.27;;;19.50;99.90;;;;;;5069315;28;20123;-71
2023/07/13 07:53:43;;;;;;;17.63;11.18;;;19.60;99.90;;;;;;5067743;28;20028;-71
2023/07/13 07:56:09;;;;;;;19.20;10.10;;;19.60;99.90;;;;;;5070826;28;20050;-71
2023/07/13 07:58:35;;;;;;;16.67;9.48;;;19.60;99.90;;;;;;5057191;28;20529;-71
2023/07/13 08:01:06;;;;;;;17.80;9.70;;;19.70;99.90;;;;;;5054521;28;20107;-71
2023/07/13 08:03:32;;;;;;;22.42;11.40;;;19.60;99.90;;;;;;5068530;28;20036;-71
2023/07/13 08:05:58;;;;;;;16.73;10.68;;;19.60;99.90;;;;;;5069847;28;20149;-71
2023/07/13 08:08:24;;;;;;;21.10;9.98;;;19.60;99.90;;;;;;5070994;28;20484;-71
2023/07/13 08:10:50;;;;;;;16.85;10.20;;;19.80;99.90;;;;;;5070283;28;20021;-71
2023/07/13 08:13:15;;;;;;;16.98;10.43;;;19.90;99.90;;;;;;5068486;28;20094;-71
2023/07/13 08:15:41;;;;;;;18.60;11.20;;;20.10;99.90;;;;;;5063392;28;20031;-71
2023/07/13 08:18:09;;;;;;;25.02;10.35;;;20.20;99.90;;;;;;5064183;28;20028;-71
2023/07/13 08:20:40;;;;;;;22.63;11.15;;;20.20;99.90;;;;;;5074359;28;20081;-72
2023/07/13 08:23:06;;;;;;;20.90;11.02;;;20.40;99.90;;;;;;5068562;28;20068;-71
2023/07/13 08:25:32;;;;;;;17.23;10.32;;;20.50;99.90;;;;;;5054306;28;20039;-71
2023/07/13 08:27:58;;;;;;;16.10;10.98;;;20.60;99.90;;;;;;5066150;28;20532;-71
2023/07/13 08:30:23;;;;;;;18.52;11.68;;;20.80;99.90;;;;;;5054260;28;20036;-71
2023/07/13 08:32:49;;;;;;;21.30;10.50;;;21.00;99.90;;;;;;5069835;28;20024;-71
2023/07/13 08:35:15;;;;;;;21.85;11.07;;;21.10;99.90;;;;;;5073739;28;20170;-71
2023/07/13 08:37:41;;;;;;;17.77;10.65;;;21.20;99.90;;;;;;5069131;28;20502;-71
2023/07/13 08:40:10;;;;;;;16.63;8.85;;;21.40;99.90;;;;;;5062766;28;20123;-70
2023/07/13 08:42:41;;;;;;;16.13;8.48;;;21.50;99.90;;;;;;5063203;28;20035;-71
2023/07/13 08:45:42;;;;;;;10.37;6.27;;;21.60;99.90;;;;;;5061074;28;20052;-71
2023/07/13 08:48:26;;;;;;;11.55;5.72;;;21.60;99.90;;;;;;5064963;28;20449;-69
2023/07/13 08:50:57;;;;;;;9.50;5.85;;;21.60;99.90;;;;;;5062052;28;20028;-71
2023/07/13 08:53:25;;;;;;;13.40;6.45;;;21.60;99.90;;;;;;5072732;28;20473;-71
2023/07/13 08:55:59;;;;;;;13.20;6.32;;;21.70;99.90;;;;;;5065256;28;20025;-71
2023/07/13 08:58:29;;;;;;;15.52;7.20;;;21.80;99.90;;;;;;5058431;28;20068;-71
2023/07/13 09:01:16;;;;;;;12.88;7.05;;;21.90;99.90;;;;;;5078806;28;20036;-71
2023/07/13 09:04:19;;;;;;;15.50;8.00;;;22.10;99.90;;;;;;5070552;28;20047;-71
2023/07/13 09:06:54;;;;;;;18.30;7.38;;;22.10;99.90;;;;;;5073312;28;20105;-71
2023/07/13 09:09:44;;;;;;;14.63;5.03;;;22.20;99.90;;;;;;5067000;28;20051;-71
2023/07/13 09:12:22;;;;;;;10.95;4.40;;;22.30;99.90;;;;;;5069219;28;20040;-71
2023/07/13 09:14:54;;;;;;;11.98;6.40;;;22.40;99.90;;;;;;5073031;28;20032;-70
2023/07/13 09:17:41;;;;;;;10.55;5.53;;;22.40;99.90;;;;;;5070713;28;20349;-70
2023/07/13 09:20:29;;;;;;;9.88;4.93;;;22.20;99.90;;;;;;5069805;28;20114;-70
2023/07/13 09:23:02;;;;;;;11.73;4.72;;;21.90;99.90;;;;;;5072573;28;20036;-71
2023/07/13 09:25:33;;;;;;;6.85;3.35;;;21.50;99.90;;;;;;5069563;28;20037;-71
2023/07/13 09:28:14;;;;;;;9.40;4.22;;;21.20;99.90;;;;;;5054377;28;20029;-71
2023/07/13 09:30:47;;;;;;;10.63;3.55;;;21.00;99.90;;;;;;5068648;28;20044;-71
2023/07/13 09:33:14;;;;;;;11.70;5.50;;;20.80;99.90;;;;;;5073594;28;20448;-71
2023/07/13 09:35:39;;;;;;;10.75;4.90;;;20.70;99.90;;;;;;5070490;28;20024;-71
2023/07/13 09:38:17;;;;;;;11.18;5.40;;;20.60;99.90;;;;;;5071964;28;20048;-71
2023/07/13 09:41:03;;;;;;;8.10;5.55;;;20.70;99.90;;;;;;5072222;28;20056;-71
2023/07/13 09:43:29;;;;;;;11.52;6.00;;;20.80;99.90;;;;;;5062879;28;20079;-71
2023/07/13 09:45:55;;;;;;;14.93;6.80;;;20.70;99.90;;;;;;5065800;28;20476;-71
2023/07/13 09:48:21;;;;;;;15.20;6.03;;;20.60;99.90;;;;;;5071497;28;20024;-71
2023/07/13 09:50:47;;;;;;;13.43;5.28;;;20.60;99.90;;;;;;5068677;28;20381;-69
2023/07/13 09:53:14;;;;;;;8.70;4.32;;;20.70;99.90;;;;;;5073055;28;20029;-71
2023/07/13 09:55:41;;;;;;;13.38;6.13;;;20.70;99.90;;;;;;5064364;28;20104;-71
2023/07/13 09:58:12;;;;;;;12.05;6.25;;;20.60;99.90;;;;;;5066777;28;20039;-69
2023/07/13 10:00:39;;;;;;;17.25;7.97;;;20.30;99.90;;;;;;5067395;28;20138;-70
2023/07/13 10:03:20;;;;;;;12.50;6.35;;;20.10;99.90;;;;;;5068867;28;20052;-70
2023/07/13 10:05:47;;;;;;;13.15;8.35;;;19.90;99.90;;;;;;5072763;28;20027;-70
2023/07/13 10:08:30;;;;;;;16.45;8.30;;;19.60;99.90;;;;;;5066905;28;20380;-70
2023/07/13 10:11:17;;;;;;;15.60;7.50;;;19.60;99.90;;;;;;5073102;28;20017;-70
2023/07/13 10:13:50;;;;;;;14.02;7.57;;;19.60;99.90;;;;;;5064310;28;20035;-71
2023/07/13 10:16:16;;;;;;;12.30;6.00;;;19.60;99.90;;;;;;5072625;28;20021;-71
2023/07/13 10:18:56;;;;;;;14.35;6.95;;;19.50;99.90;;;;;;5068734;28;20048;-71
2023/07/13 10:21:27;;;;;;;10.77;6.32;;;19.70;99.90;;;;;;5065110;28;20377;-71
2023/07/13 10:24:15;;;;;;;11.27;6.63;;;20.00;99.90;;;;;;5061532;28;20059;-71
2023/07/13 10:26:48;;;;;;;9.52;6.40;;;20.20;99.90;;;;;;5053921;28;20029;-71
2023/07/13 10:29:16;;;;;;;14.80;6.15;;;20.30;99.90;;;;;;5063854;28;20024;-71
2023/07/13 10:31:45;;;;;;;16.95;6.40;;;20.40;99.90;;;;;;5062373;28;20107;-71
2023/07/13 10:34:13;;;;;;;9.98;4.95;;;20.50;99.90;;;;;;5068302;28;20027;-71
2023/07/13 10:36:47;;;;;;;9.95;4.43;;;20.80;99.90;;;;;;5071455;28;20552;-71
2023/07/13 10:39:30;;;;;;;9.40;4.20;;;21.10;99.90;;;;;;5072099;28;20572;-71
2023/07/13 10:42:09;;;;;;;11.73;4.38;;;21.30;99.90;;;;;;5069893;28;20103;-71
2023/07/13 10:44:35;;;;;;;11.63;4.15;;;21.40;99.90;;;;;;5071741;28;20039;-71
2023/07/13 10:47:06;;;;;;;8.32;2.50;;;21.40;99.90;;;;;;5071946;28;20020;-71
2023/07/13 10:49:35;;;;;;;6.03;1.65;;;21.30;99.90;;;;;;5066731;28;20024;-71
2023/07/13 10:52:01;;;;;;;5.47;1.40;;;21.00;99.90;;;;;;5064458;28;20393;-70
2023/07/13 10:54:34;;;;;;;5.47;1.73;;;20.50;99.90;;;;;;5069139;28;20039;-70
2023/07/13 10:57:19;;;;;;;6.75;2.10;;;20.10;99.90;;;;;;5071194;28;20067;-70
2023/07/13 11:00:15;;;;;;;8.02;3.08;;;19.80;99.90;;;;;;5068850;28;20074;-70
2023/07/13 11:02:41;;;;;;;11.93;3.67;;;19.60;99.90;;;;;;5061569;28;20049;-71
2023/07/13 11:05:28;;;;;;;7.43;3.40;;;19.40;99.90;;;;;;5069518;28;20100;-70
2023/07/13 11:08:13;;;;;;;10.30;4.03;;;19.30;99.90;;;;;;5068339;28;20021;-70
2023/07/13 11:10:50;;;;;;;10.13;4.15;;;19.20;99.90;;;;;;5070919;28;20051;-70
2023/07/13 11:13:37;;;;;;;9.48;4.03;;;19.30;99.90;;;;;;5068243;28;20028;-71
2023/07/13 11:16:18;;;;;;;7.35;3.50;;;19.40;99.90;;;;;;5071382;28;20023;-71
2023/07/13 11:18:50;;;;;;;10.95;2.92;;;19.50;99.90;;;;;;5071310;28;20080;-71
2023/07/13 11:21:15;;;;;;;6.70;3.00;;;19.60;99.90;;;;;;5071319;28;20059;-70
2023/07/13 11:23:52;;;;;;;8.95;2.88;;;19.50;99.90;;;;;;5069813;28;20048;-72
2023/07/13 11:26:51;;;;;;;6.35;2.85;;;19.50;99.90;;;;;;5059670;28;20131;-71
2023/07/13 11:29:17;;;;;;;6.68;3.33;;;19.60;99.90;;;;;;5029072;28;20056;-71
2023/07/13 11:31:51;;;;;;;8.20;3.08;;;19.60;99.90;;;;;;5051098;28;20492;-71
2023/07/13 11:34:37;;;;;;;7.38;2.80;;;19.70;99.90;;;;;;5071214;28;20480;-71
2023/07/13 11:37:03;;;;;;;6.32;1.65;;;19.90;99.90;;;;;;5071134;28;20096;-71
2023/07/13 11:39:31;;;;;;;5.63;2.20;;;20.20;99.90;;;;;;5070855;28;20572;-71
2023/07/13 11:42:00;;;;;;;3.65;1.40;;;20.30;99.90;;;;;;5070592;28;20025;-71
2023/07/13 11:44:29;;;;;;;6.00;1.55;;;20.40;99.90;;;;;;5071371;28;20028;-71
2023/07/13 11:47:02;;;;;;;5.72;2.15;;;20.20;99.90;;;;;;5071237;28;20388;-71
2023/07/13 11:49:31;;;;;;;6.90;2.10;;;20.20;99.90;;;;;;5070776;28;20032;-71
2023/07/13 11:51:58;;;;;;;8.05;2.42;;;20.20;99.90;;;;;;5068783;28;20036;-71
2023/07/13 11:54:27;;;;;;;4.25;2.25;;;20.40;99.90;;;;;;5066939;28;20111;-71
2023/07/13 11:56:57;;;;;;;5.53;2.70;;;20.70;99.90;;;;;;5051457;28;20075;-71
2023/07/13 11:59:24;;;;;;;10.20;2.50;;;21.10;99.90;;;;;;5051266;28;20025;-71
2023/07/13 12:01:54;;;;;;;6.47;3.20;;;21.30;99.90;;;;;;5057051;28;20045;-70
2023/07/13 12:04:25;;;;;;;5.05;2.10;;;21.50;99.90;;;;;;5055449;28;20095;-71
2023/07/13 12:07:14;;;;;;;5.45;2.30;;;21.80;99.90;;;;;;5065640;28;20036;-71
2023/07/13 12:09:41;;;;;;;6.20;2.33;;;22.10;99.90;;;;;;5066076;28;20028;-71
2023/07/13 12:12:19;;;;;;;5.10;2.38;;;22.20;99.90;;;;;;5070438;28;20024;-71
2023/07/13 12:14:44;;;;;;;6.10;2.20;;;22.50;99.90;;;;;;5069680;28;20039;-71
2023/07/13 12:17:20;;;;;;;9.48;2.33;;;22.60;99.90;;;;;;5068473;28;20028;-71
2023/07/13 12:19:48;;;;;;;6.38;2.30;;;22.80;99.90;;;;;;5063956;28;20074;-71
2023/07/13 12:22:15;;;;;;;7.65;1.88;;;22.60;99.90;;;;;;5067529;28;20059;-71
2023/07/13 12:24:42;;;;;;;4.50;1.02;;;22.40;99.90;;;;;;5063113;28;20419;-71
2023/07/13 12:27:26;;;;;;;5.13;1.00;;;22.20;99.90;;;;;;5057024;28;20013;-71
2023/07/13 12:29:58;;;;;;;3.38;1.00;;;22.10;99.90;;;;;;5062683;28;20036;-71
2023/07/13 12:32:25;;;;;;;3.25;0.88;;;22.20;99.90;;;;;;5070488;28;20119;-71
2023/07/13 12:35:22;;;;;;;4.15;0.68;;;22.40;99.90;;;;;;5070083;28;20063;-71
2023/07/13 12:37:47;;;;;;;2.92;0.68;;;22.30;99.90;;;;;;5065007;28;20074;-71
2023/07/13 12:40:19;;;;;;;3.60;0.80;;;22.20;99.90;;;;;;5069474;28;20031;-71
2023/07/13 12:42:48;;;;;;;3.25;0.60;;;22.20;99.90;;;;;;5067531;28;20063;-71
2023/07/13 12:45:23;;;;;;;3.90;0.82;;;22.20;99.90;;;;;;5057555;28;20569;-71
2023/07/13 12:47:53;;;;;;;5.45;0.80;;;22.30;99.90;;;;;;5064976;28;20488;-71
2023/07/13 12:50:23;;;;;;;2.90;0.77;;;22.20;99.90;;;;;;5068581;28;20108;-71